Laghouat, Algeria
Current Conditions -  °F | °C
As of 12:00 PM on Friday 28 Nov 2014 (Local Time) from DAUL Reporting Station
Broken Clouds Broken Clouds  
Wind Chill: 55°   Ceiling: 3300
Heat Index: 55°   Visibility: 5mi
Dew Point: 43°   Wind: 23mph
Humidity: 63%   Direction: 200°SSW
Pressure: 29.62"   Gusts: NA
Location:  33.8°N, 2.88°E
Report Text: DAUL 281100Z 20020KT 8000 BKN033 BKN080 13/06 Q1003
Loading
Personal Weather Stations






























Interactive Weather Map New forecast layout! Learn more

10-Day Weather Forecast

Advertisements
Track Severe Weather on mobile